WEATHER DATA

TODAY
Time Temp. Dewp. Hum. Wind dir Wind speed Wind gust Bar. 1h Prec. 24h Prec.
00:04 0.3 -0.9 91 215 0.3 0.8 1009 0.1010 0.0000
00:15 0.2 -1.1 90 0 0.8 1008.8 0.0000 0.0000
00:25 0.1 -1.2 90 270 0.3 1.1 1008.8 0.0000 0.0000
00:35 0.1 -1.1 91 270 0.3 0.8 1008.6 0.0000 0.0000
00:45 0.1 -1.1 91 239 0.3 1.1 1008.6 0.0000 0.0000
00:55 0.1 -1.1 91 0 0.3 0.8 1008.5 0.0000 0.0000
01:05 0.1 -1.1 91 341 0.3 1.1 1008.5 0.0000 0.0000
01:15 0.1 -1.1 91 326 0.3 1.1 1008.3 0.0000 0.0000
01:26 0.1 -1.1 91 206 0.3 1.1 1008.1 0.0000 0.0000
01:36 0.1 -1.1 91 270 0.3 0.8 1008.2 0.0000 0.0000
01:45 0.1 -1.1 91 270 0.3 0.8 1008.1 0.0000 0.0000
01:55 0.1 -1.1 91 315 0.3 0.8 1008 0.0000 0.0000
02:06 0 -1.1 91 270 0.3 1.1 1007.9 0.0000 0.0000
02:16 0 -1.1 91 171 0.3 0.8 1007.7 0.0000 0.0000
02:26 0.1 -1.1 91 233 0.3 1.1 1007.7 0.0000 0.0000
02:36 0.1 -1.1 91 329 0.3 1.1 1007.9 0.0000 0.0000
02:46 0.1 -1.1 91 270 0.3 0.8 1008 0.0000 0.0000
02:56 0.1 -1.1 91 270 0.3 0.8 1007.9 0.0000 0.0000
03:06 0.1 -1.1 91 319 0.3 1.1 1007.8 0.0000 0.0000
03:17 0.1 -1.1 91 338 0.3 1.1 1007.5 0.0000 0.0000
03:27 0 -1.1 91 234 0.3 1.1 1007.5 0.0000 0.0000
03:37 0.1 -1.1 91 203 0.3 1.1 1007.4 0.0000 0.0000
03:47 0.1 -1.1 91 270 0.3 0.8 1007.4 0.0000 0.0000
03:57 0.1 -1.1 91 225 0.3 0.8 1007.3 0.0000 0.0000
04:07 0.2 -1 91 270 0.3 0.8 1007.3 0.0000 0.0000
04:17 0.3 -0.9 91 270 0.3 0.8 1007.3 0.0000 0.0000
04:28 0.3 -0.9 91 237 0.3 0.8 1007.2 0.0000 0.0000
04:38 0.3 -0.9 91 270 0.3 1.1 1007 0.0000 0.0000
04:47 0.3 -0.9 91 229 0.3 1.1 1007 0.0000 0.0000
04:57 0.3 -0.9 91 170 0.3 1.7 1007.1 0.0000 0.0000
05:08 0.2 -1 91 0 0.8 1006.9 0.0000 0.0000
05:18 0.3 -0.9 91 270 0.3 0.8 1007 0.0000 0.0000
05:28 0.3 -0.9 91 270 0.3 0.8 1007.1 0.0000 0.0000
05:38 0.3 -0.9 91 270 0.3 0.8 1006.9 0.0000 0.0000
05:49 0.4 -0.8 91 315 0.3 0.8 1006.9 0.0000 0.0000
05:58 0.4 -0.8 91 232 0.3 0.8 1006.8 0.0000 0.0000
06:08 0.5 -0.7 91 270 0.3 0.8 1007 0.0000 0.0000
06:19 0.5 -0.7 91 305 0.3 0.8 1007 0.0000 0.0000
06:29 0.6 -0.5 92 225 0.3 0.8 1007 0.0000 0.0000
06:39 0.6 -0.5 92 270 0.3 1.1 1006.8 0.0000 0.0000
06:49 0.7 -0.4 92 0 0.8 1006.9 0.0000 0.0000
06:59 0.7 -0.4 92 225 0.3 0.8 1006.5 0.0000 0.0000
07:09 0.7 -0.4 92 270 0.3 0.8 1006.9 0.0000 0.0000
07:19 0.8 -0.3 92 321 0.3 1.1 1007 0.0000 0.0000
07:29 0.8 -0.3 92 270 0.3 1.1 1007 0.0000 0.0000
07:40 0.9 -0.2 92 270 0.3 0.8 1007.2 0.0000 0.0000
07:50 0.9 -0.2 92 225 0.3 1.1 1007.1 0.0000 0.0000
07:59 1 -0.1 92 270 0.3 1.1 1007.3 0.0000 0.0000
08:10 1.1 0 92 270 0.3 0.8 1007.2 0.0000 0.0000
08:20 1.2 0 92 270 0.3 1.1 1007.7 0.0000 0.0000
08:30 1.2 0 92 351 0.3 1.4 1007.2 0.0000 0.0000
08:40 1.3 0.1 92 7 0.3 0.8 1007.3 0.0000 0.0000
08:51 1.4 0.2 92 270 0.3 0.8 1007.4 0.0000 0.0000
09:01 1.6 0.4 92 315 0.3 0.8 1007.2 0.0000 0.0000
09:10 1.7 0.5 92 345 0.3 1.1 1007.1 0.0000 0.0000
09:21 1.8 0.6 92 270 0.3 0.8 1007.2 0.0000 0.0000
09:31 1.9 0.7 92 225 0.3 0.8 1007.2 0.1010 0.1000
09:41 2 0.8 92 341 0.3 1.1 1007.5 0.1010 0.1000
09:51 2.2 1 92 270 0.3 1.1 1007.2 0.2020 0.2000
10:02 2.3 1.1 92 270 0.3 1.1 1007.5 0.4040 0.4000
10:11 2.5 1.3 92 180 0.3 0.8 1007.5 0.7070 0.7000
10:21 2.5 1.2 91 270 0.3 0.8 1007.7 0.9090 0.9000
10:32 2.5 1.2 91 350 0.3 0.8 1007.5 1.1110 1.2000
10:42 2.5 1.2 91 30 0.3 1.1 1007.4 1.4140 1.5000
10:52 2.6 1.4 92 180 0.3 1.1 1007.5 1.6160 1.8000
11:02 2.9 1.7 92 270 0.3 0.8 1007.3 1.6160 2.1000
11:13 3 1.7 91 315 0.3 0.8 1007.2 1.6160 2.4000
11:22 3 1.7 91 326 0.3 0.8 1007.1 1.7170 2.7000
11:32 3 1.7 91 270 0.3 1.1 1007.2 1.6160 3.0000
11:42 3.1 1.8 91 270 0.3 1.1 1007.3 1.7170 3.3000
11:53 3.1 1.8 91 305 0.3 1.1 1007.1 1.6160 3.5000
12:03 3.1 1.8 91 324 0.3 1.1 1007 1.6160 3.9000
12:13 3 1.5 90 5 0.8 1.4 1006.8 1.7170 4.3000
12:23 2.9 1.6 91 315 0.3 1.1 1006.9 1.9190 4.8000
12:33 2.8 1.5 91 307 0.3 1.1 1006.9 1.9190 5.2000
12:43 2.6 1.3 91 352 0.3 1.4 1006.6 2.5250 6.0000
12:53 2.6 1.3 91 237 0.3 0.8 1006.6 2.7270 6.5000
13:04 2.7 1.5 92 215 0.3 1.4 1006.4 2.8280 6.9000
13:14 2.8 1.6 92 0.3 1.1 1006.5 2.4240 7.1000
13:23 2.8 1.6 92 37 0.3 0.8 1006 2.3230 7.3000
13:33 3 1.8 92 270 0.3 0.8 1006 1.9190 7.5000
13:44 3 1.8 92 270 0.3 1.1 1006 1.4140 7.7000
13:54 3 1.7 91 270 0.3 1.4 1006.1 1.1110 7.8000
14:04 2.9 1.7 92 225 0.3 1.1 1006.4 0.9090 7.9000
14:14 3 1.8 92 270 0.3 1.1 1006.2 0.9090 8.1000
14:25 2.9 1.7 92 270 0.3 1.1 1006.3 0.8080 8.2000
14:34 2.9 1.7 92 325 0.3 1.1 1006.4 0.7070 8.3000
14:44 2.9 1.7 92 270 0.3 0.8 1006.3 0.6060 8.4000
14:55 2.8 1.6 92 270 0.3 0.8 1006.4 0.7070 8.5000
15:05 2.8 1.6 92 270 0.3 1.1 1006.4 0.7070 8.7000
15:15 2.8 1.6 92 270 0.3 1.1 1006.5 0.9090 9.0000
15:25 2.7 1.5 92 270 0.3 1.1 1006.6 1.5150 9.8000
15:35 2.6 1.4 92 278 1.4 2.5 1006.4 2.2220 10.5000
15:45 2.5 1.3 92 279 1.1 1.7 1006.4 2.7270 11.1000
15:55 2.4 1.2 92 278 1.1 1.7 1006.4 2.7270 11.3000
16:06 2.4 1.4 93 270 1.1 1.7 1006.3 2.7270 11.5000
16:16 2.4 1.4 93 276 1.4 2.2 1006.2 2.6260 12.0000
16:26 2.3 1.3 93 287 1.1 1.7 1006 2.4240 12.5000
16:36 2.3 1.3 93 284 1.1 1.7 1005.7 2.3230 13.2000
16:46 2.2 1.2 93 270 1.1 1.7 1005.8 2.5250 13.7000
16:56 2.2 1.2 93 285 1.1 1.7 1005.7 3.0300 14.3000
17:06 2.2 1.2 93 281 1.1 1.7 1005.7 3.3330 14.8000
17:16 2.2 1.2 93 270 1.1 1.7 1005.7 3.6360 15.7000
17:27 2.2 1.2 93 270 1.1 1.7 1006 3.8380 16.4000
17:37 2.3 1.3 93 285 1.1 1.7 1005.6 3.6360 16.9000
17:46 2.6 1.7 94 342 1.1 2.5 1005.5 3.6360 17.4000
17:57 2.7 1.8 94 343 1.4 5.8 1005.5 3.6360 18.0000
18:07 3.1 2.2 94 90 0.8 2.2 1005.7 3.8380 18.7000
18:17 3.1 2.2 94 341 1.4 4.2 1005.8 3.5350 19.2000
18:27 3.2 2.3 94 310 1.4 3.6 1005.8 3.6360 20.0000
18:38 3.3 2.4 94 345 2.2 3.9 1005.7 3.8380 20.7000
18:48 3.6 2.7 94 32 2.2 4.2 1006 4.0400 21.4000
18:57 3.8 2.9 94 257 1.1 3.1 1005.8 4.1410 22.1000
19:08 3.9 3 94 329 1.4 3.1 1005.8 4.0400 22.7000
19:18 3.9 3 94 309 1.1 2.5 1005.7 4.4440 23.6000
19:28 4 3.1 94 299 1.4 2.8 1005.6 4.4440 24.4000
19:38 4 3.1 94 295 1.1 2.2 1005.4 4.6460 25.4000
19:49 4 3.1 94 1 1.1 2.2 1005.6 4.7470 26.2000
19:58 4 3.1 94 326 0.8 1.7 1005.4 4.4440 26.6000
20:08 4.1 3.2 94 345 0.8 1.7 1005.3 4.7470 27.5000
20:18 4 3.1 94 335 0.3 1.1 1005.5 4.8480 28.5000
20:29 4 3.1 94 338 0.3 2.2 1005.2 4.9490 29.4000
20:39 4 3.1 94 45 0.3 1.1 1005.4 4.7470 30.1000
20:49 3.9 3 94 351 0.3 0.8 1005.4 4.9490 31.1000

DAY STATISTIC

2019-11-15
TEMPERATURE
AVERAGE
1.8
HIGH
4.1
20:08
LOW
0.0
02:06
PRESSURE
AVERAGE
1006.9
HIGH
1009.0
00:04
LOW
1005.2
20:29
DEWPOINT
AVERAGE
0.7
HIGH
3.2
20:08
LOW
-1.2
00:25
HUMIDITY
AVERAGE
92
HIGH
94
17:46
LOW
90
00:15
WIND SPEED
AVERAGE
0.5
HIGH
2.2
18:38
WIND GUST
AVERAGE
1.3
HIGH
5.8
17:57
WIND DIRECTION
PREVAILING
W
43.5%
N
14.5
NE
3.2
E
0.8
SE
0.0
S
4.0
SW
12.9
W
43.5
NW
17.7
PRECIPITATION
RAIN HOUR
4.9
RAIN DAY
31.1
TEMPERATURE (°C)
LOW
0.0
HIGH
4.1
AVERAGE
1.8
PRESSURE (hpa)
LOW
1005.2
HIGH
1009.0
AVERAGE
1006.9
DEVICE